createdAt,value
2023-11-14T00:00:09.934Z,8.55
2023-11-14T00:02:36.444Z,8.52
2023-11-14T00:05:03.343Z,8.50
2023-11-14T00:07:29.897Z,8.51
2023-11-14T00:09:56.816Z,8.59
2023-11-14T00:12:23.617Z,8.57
2023-11-14T00:14:50.418Z,8.67
2023-11-14T00:17:18.350Z,8.60
2023-11-14T00:19:45.156Z,8.62
2023-11-14T00:22:11.728Z,8.58
2023-11-14T00:24:38.536Z,8.54
2023-11-14T00:27:05.512Z,8.53
2023-11-14T00:29:32.175Z,8.57
2023-11-14T00:31:58.808Z,8.62
2023-11-14T00:34:26.906Z,8.60
2023-11-14T00:36:53.697Z,8.59
2023-11-14T00:39:20.228Z,8.59
2023-11-14T00:41:47.080Z,8.57
2023-11-14T00:44:13.695Z,8.56
2023-11-14T00:46:40.501Z,8.57
2023-11-14T00:49:07.018Z,8.56
2023-11-14T00:51:35.062Z,8.53
2023-11-14T00:54:01.855Z,8.55
2023-11-14T00:56:28.345Z,8.60
2023-11-14T00:58:55.315Z,8.56
2023-11-14T01:01:21.883Z,8.53
2023-11-14T01:03:48.659Z,8.45
2023-11-14T01:06:15.174Z,8.42
2023-11-14T01:08:43.201Z,8.35
2023-11-14T01:11:10.536Z,8.26
2023-11-14T01:13:37.118Z,8.27
2023-11-14T01:16:04.630Z,8.18
2023-11-14T01:18:31.381Z,8.11
2023-11-14T01:20:57.918Z,8.10
2023-11-14T01:23:24.558Z,8.12
2023-11-14T01:25:52.439Z,8.07
2023-11-14T01:28:18.972Z,8.06
2023-11-14T01:30:45.803Z,8.07
2023-11-14T01:33:12.328Z,8.05
2023-11-14T01:35:38.813Z,8.14
2023-11-14T01:38:05.366Z,8.15
2023-11-14T01:40:31.849Z,8.08
2023-11-14T01:43:02.736Z,8.07
2023-11-14T01:45:29.694Z,8.11
2023-11-14T01:47:56.699Z,8.09
2023-11-14T01:50:23.799Z,8.06
2023-11-14T01:52:51.164Z,8.03
2023-11-14T01:55:17.803Z,8.04
2023-11-14T01:57:46.294Z,7.99
2023-11-14T02:00:16.637Z,8.04
2023-11-14T02:02:43.462Z,8.08
2023-11-14T02:05:11.739Z,8.01
2023-11-14T02:07:38.423Z,8.06
2023-11-14T02:10:05.897Z,8.06
2023-11-14T02:12:32.405Z,8.05
2023-11-14T02:14:58.975Z,8.04
2023-11-14T02:17:27.099Z,8.02
2023-11-14T02:19:53.774Z,8.00
2023-11-14T02:22:20.348Z,7.96
2023-11-14T02:24:50.827Z,8.02
2023-11-14T02:27:17.490Z,7.96
2023-11-14T02:29:44.480Z,7.91
2023-11-14T02:32:11.145Z,7.93
2023-11-14T02:34:37.657Z,7.95
2023-11-14T02:37:04.578Z,8.01
2023-11-14T02:39:31.137Z,7.97
2023-11-14T02:41:58.972Z,7.94
2023-11-14T02:44:25.517Z,7.93
2023-11-14T02:46:52.278Z,7.93
2023-11-14T02:49:35.010Z,7.90
2023-11-14T02:52:01.722Z,7.85
2023-11-14T02:54:28.153Z,7.86
2023-11-14T02:56:54.693Z,7.90
2023-11-14T02:59:22.524Z,7.89
2023-11-14T03:01:49.168Z,7.89
2023-11-14T03:04:15.664Z,7.85
2023-11-14T03:06:42.256Z,7.90
2023-11-14T03:09:08.891Z,7.91
2023-11-14T03:11:35.463Z,7.85
2023-11-14T03:14:01.989Z,7.84
2023-11-14T03:16:30.208Z,7.88
2023-11-14T03:18:56.747Z,7.88
2023-11-14T03:21:23.250Z,7.87
2023-11-14T03:23:49.935Z,7.87
2023-11-14T03:26:16.546Z,7.88
2023-11-14T03:28:43.043Z,7.86
2023-11-14T03:31:09.476Z,7.86
2023-11-14T03:33:38.254Z,7.84
2023-11-14T03:36:05.691Z,7.81
2023-11-14T03:38:32.918Z,7.82
2023-11-14T03:40:59.471Z,7.76
2023-11-14T03:43:25.916Z,7.78
2023-11-14T03:45:52.399Z,7.73
2023-11-14T03:48:18.923Z,7.71
2023-11-14T03:50:47.622Z,7.68
2023-11-14T03:53:14.161Z,7.66
2023-11-14T03:55:40.825Z,7.69
2023-11-14T03:58:07.282Z,7.69
2023-11-14T04:00:33.897Z,7.67
2023-11-14T04:03:01.360Z,7.65
2023-11-14T04:05:28.116Z,7.66
2023-11-14T04:07:55.998Z,7.66
2023-11-14T04:10:22.974Z,7.68
2023-11-14T04:12:49.459Z,7.63
2023-11-14T04:15:16.160Z,7.68
2023-11-14T04:17:42.824Z,7.67
2023-11-14T04:20:09.812Z,7.64
2023-11-14T04:22:36.407Z,7.62
2023-11-14T04:25:04.949Z,7.66
2023-11-14T04:27:31.717Z,7.69
2023-11-14T04:29:58.210Z,7.68
2023-11-14T04:32:24.988Z,7.63
2023-11-14T04:34:51.690Z,7.68
2023-11-14T04:37:18.210Z,7.71
2023-11-14T04:39:44.712Z,7.69
2023-11-14T04:42:12.589Z,7.66
2023-11-14T04:44:39.149Z,7.67
2023-11-14T04:47:06.303Z,7.62
2023-11-14T04:49:32.783Z,7.65
2023-11-14T04:51:59.551Z,7.66
2023-11-14T04:54:25.998Z,7.62
2023-11-14T04:56:52.509Z,7.64
2023-11-14T04:59:20.779Z,7.60
2023-11-14T05:01:47.292Z,7.57
2023-11-14T05:04:13.828Z,7.50
2023-11-14T05:06:40.330Z,7.45
2023-11-14T05:09:06.965Z,7.43
2023-11-14T05:11:37.173Z,7.45
2023-11-14T05:14:04.230Z,7.41
2023-11-14T05:16:38.645Z,7.38
2023-11-14T05:19:05.364Z,7.40
2023-11-14T05:21:31.901Z,7.42
2023-11-14T05:23:58.456Z,7.50
2023-11-14T05:26:24.911Z,7.49
2023-11-14T05:28:51.436Z,7.53
2023-11-14T05:31:17.963Z,7.60
2023-11-14T05:33:45.765Z,7.63
2023-11-14T05:36:13.050Z,7.64
2023-11-14T05:38:39.482Z,7.59
2023-11-14T05:41:06.247Z,7.62
2023-11-14T05:43:32.833Z,7.60
2023-11-14T05:45:59.435Z,7.62
2023-11-14T05:48:25.961Z,7.62
2023-11-14T05:50:53.777Z,7.66
2023-11-14T05:53:20.276Z,7.68
2023-11-14T05:55:46.795Z,7.74
2023-11-14T05:58:13.543Z,7.74
2023-11-14T06:00:40.035Z,7.75
2023-11-14T06:03:06.671Z,7.75
2023-11-14T06:05:33.361Z,7.74
2023-11-14T06:08:01.302Z,7.85
2023-11-14T06:10:27.878Z,7.82
2023-11-14T06:12:54.327Z,7.82
2023-11-14T06:15:20.978Z,7.84
2023-11-14T06:17:47.608Z,7.82
2023-11-14T06:20:14.281Z,7.82
2023-11-14T06:22:40.923Z,7.87
2023-11-14T06:25:09.359Z,7.88
2023-11-14T06:27:36.094Z,7.90
2023-11-14T06:30:02.766Z,7.89
2023-11-14T06:32:29.379Z,7.84
2023-11-14T06:34:56.096Z,7.80
2023-11-14T06:37:22.673Z,7.83
2023-11-14T06:39:49.187Z,7.75
2023-11-14T06:42:16.949Z,7.80
2023-11-14T06:44:43.841Z,7.81
2023-11-14T06:47:10.434Z,7.76
2023-11-14T06:49:37.084Z,7.81
2023-11-14T06:52:03.963Z,7.77
2023-11-14T06:54:30.479Z,7.73
2023-11-14T06:56:57.211Z,7.69
2023-11-14T06:59:25.037Z,7.64
2023-11-14T07:01:51.556Z,7.60
2023-11-14T07:04:20.152Z,7.61
2023-11-14T07:06:47.353Z,7.61
2023-11-14T07:09:13.832Z,7.67
2023-11-14T07:11:40.368Z,7.65
2023-11-14T07:14:06.840Z,7.65
2023-11-14T07:16:34.788Z,7.66
2023-11-14T07:19:01.370Z,7.72
2023-11-14T07:21:28.245Z,7.70
2023-11-14T07:23:54.823Z,7.69
2023-11-14T07:26:21.290Z,7.77
2023-11-14T07:28:48.166Z,7.81
2023-11-14T07:31:14.703Z,7.88
2023-11-14T07:33:42.668Z,7.93
2023-11-14T07:36:09.367Z,8.01
2023-11-14T07:38:35.814Z,8.02
2023-11-14T07:41:02.306Z,8.04
2023-11-14T07:43:28.797Z,8.08
2023-11-14T07:45:55.348Z,8.12
2023-11-14T07:48:21.843Z,8.19
2023-11-14T07:50:49.700Z,8.21
2023-11-14T07:53:16.194Z,8.26
2023-11-14T07:55:43.351Z,8.26
2023-11-14T07:58:09.928Z,8.23
2023-11-14T08:00:36.616Z,8.23
2023-11-14T08:03:03.510Z,8.25
2023-11-14T08:05:30.360Z,8.19
2023-11-14T08:07:58.252Z,8.15
2023-11-14T08:10:24.700Z,8.12
2023-11-14T08:12:51.228Z,8.08
2023-11-14T08:15:17.778Z,8.05
2023-11-14T08:17:44.409Z,7.98
2023-11-14T08:20:11.946Z,7.98
2023-11-14T08:22:38.558Z,7.96
2023-11-14T08:25:07.519Z,7.97
2023-11-14T08:27:34.060Z,8.06
2023-11-14T08:30:00.590Z,8.13
2023-11-14T08:32:27.237Z,8.16
2023-11-14T08:34:53.847Z,8.19
2023-11-14T08:37:23.508Z,8.20
2023-11-14T08:39:50.874Z,8.27
2023-11-14T08:42:18.759Z,8.33
2023-11-14T08:44:45.534Z,8.39
2023-11-14T08:47:12.193Z,8.48
2023-11-14T08:49:38.661Z,8.52
2023-11-14T08:52:06.161Z,8.51
2023-11-14T08:54:32.682Z,8.59
2023-11-14T08:56:59.142Z,8.70
2023-11-14T08:59:26.960Z,8.76
2023-11-14T09:01:53.556Z,8.82
2023-11-14T09:04:20.019Z,8.87
2023-11-14T09:06:47.390Z,8.94
2023-11-14T09:09:14.770Z,9.02
2023-11-14T09:11:41.260Z,9.02
2023-11-14T09:14:07.757Z,9.03
2023-11-14T09:16:35.673Z,9.02
2023-11-14T09:19:02.452Z,9.06
2023-11-14T09:21:29.053Z,9.04
2023-11-14T09:23:55.583Z,9.08
2023-11-14T09:26:22.246Z,9.06
2023-11-14T09:28:48.720Z,9.08
2023-11-14T09:31:15.266Z,9.09
2023-11-14T09:33:44.056Z,9.09
2023-11-14T09:36:11.051Z,9.11
2023-11-14T09:38:37.494Z,9.07
2023-11-14T09:41:04.504Z,9.08
2023-11-14T09:43:31.095Z,9.00
2023-11-14T09:45:57.739Z,9.06
2023-11-14T09:48:24.250Z,9.02
2023-11-14T09:50:52.966Z,9.01
2023-11-14T09:53:21.900Z,8.99
2023-11-14T09:55:48.534Z,9.02
2023-11-14T09:58:15.098Z,9.01
2023-11-14T10:00:41.603Z,8.99
2023-11-14T10:03:08.274Z,9.00
2023-11-14T10:05:34.816Z,8.99
2023-11-14T10:08:03.014Z,9.06
2023-11-14T10:10:29.689Z,9.15
2023-11-14T10:12:56.250Z,9.22
2023-11-14T10:15:29.646Z,9.31
2023-11-14T10:17:56.449Z,9.31
2023-11-14T10:20:26.495Z,9.29
2023-11-14T10:23:04.836Z,9.31
2023-11-14T10:25:34.940Z,9.35
2023-11-14T10:28:03.370Z,9.32
2023-11-14T10:30:45.353Z,9.34
2023-11-14T10:33:12.738Z,9.35
2023-11-14T10:35:40.833Z,9.33
2023-11-14T10:38:16.162Z,9.32
2023-11-14T10:40:46.281Z,9.40
2023-11-14T10:43:12.871Z,9.44
2023-11-14T10:45:39.577Z,9.52
2023-11-14T10:48:06.580Z,9.62
2023-11-14T10:50:33.533Z,9.62
2023-11-14T10:53:00.551Z,9.55
2023-11-14T10:55:27.659Z,9.54
2023-11-14T10:57:55.554Z,9.58
2023-11-14T11:00:22.488Z,9.56
2023-11-14T11:02:51.347Z,9.59
2023-11-14T11:05:24.909Z,9.60
2023-11-14T11:07:57.745Z,9.62
2023-11-14T11:10:24.482Z,9.60
2023-11-14T11:12:52.379Z,9.55
2023-11-14T11:15:20.365Z,9.57
2023-11-14T11:17:48.031Z,9.57
2023-11-14T11:20:23.768Z,9.57
2023-11-14T11:23:04.331Z,9.52
2023-11-14T11:25:31.277Z,9.52
2023-11-14T11:27:58.382Z,9.53
2023-11-14T11:30:27.217Z,9.56
2023-11-14T11:32:53.756Z,9.61
2023-11-14T11:35:27.474Z,9.65
2023-11-14T11:37:56.271Z,9.66
2023-11-14T11:40:24.398Z,9.66
2023-11-14T11:42:51.174Z,9.69
2023-11-14T11:45:32.360Z,9.73
2023-11-14T11:47:59.424Z,9.77
2023-11-14T11:50:26.925Z,9.75
2023-11-14T11:53:00.920Z,9.81
2023-11-14T11:55:27.440Z,9.84
2023-11-14T11:57:58.768Z,9.85
2023-11-14T12:00:25.639Z,9.84
2023-11-14T12:02:55.645Z,9.79
2023-11-14T12:05:22.755Z,9.77
2023-11-14T12:07:49.324Z,9.74
2023-11-14T12:10:16.234Z,9.71
2023-11-14T12:12:42.741Z,9.65
2023-11-14T12:15:10.025Z,9.67
2023-11-14T12:17:36.597Z,9.65
2023-11-14T12:20:08.421Z,9.65
2023-11-14T12:22:37.411Z,9.63
2023-11-14T12:25:05.517Z,9.64
2023-11-14T12:27:32.906Z,9.61
2023-11-14T12:30:07.375Z,9.59
2023-11-14T12:32:35.062Z,9.63
2023-11-14T12:35:02.015Z,9.63
2023-11-14T12:37:30.001Z,9.65
2023-11-14T12:40:04.300Z,9.63
2023-11-14T12:42:31.150Z,9.57
2023-11-14T12:44:58.096Z,9.52
2023-11-14T12:47:26.402Z,9.46
2023-11-14T12:49:52.929Z,9.43
2023-11-14T12:52:24.073Z,9.44
2023-11-14T12:54:51.907Z,9.45
2023-11-14T12:57:18.612Z,9.47
2023-11-14T12:59:45.218Z,9.51
2023-11-14T13:02:11.884Z,9.46
2023-11-14T13:04:39.282Z,9.37
2023-11-14T13:07:05.841Z,9.28
2023-11-14T13:09:33.056Z,9.19
2023-11-14T13:12:01.396Z,9.09
2023-11-14T13:14:27.905Z,9.07
2023-11-14T13:16:54.602Z,9.04
2023-11-14T13:19:21.246Z,9.05
2023-11-14T13:21:47.690Z,9.05
2023-11-14T13:24:14.334Z,9.05
2023-11-14T13:26:40.893Z,9.03
2023-11-14T13:29:08.784Z,9.00
2023-11-14T13:31:35.506Z,9.05
2023-11-14T13:34:02.206Z,9.03
2023-11-14T13:36:28.751Z,9.06
2023-11-14T13:38:55.217Z,9.10
2023-11-14T13:41:21.839Z,9.10
2023-11-14T13:43:48.331Z,9.07
2023-11-14T13:46:24.179Z,9.16
2023-11-14T13:48:54.783Z,9.22
2023-11-14T13:51:21.461Z,9.25
2023-11-14T13:53:48.004Z,9.32
2023-11-14T13:56:14.889Z,9.34
2023-11-14T13:58:41.766Z,9.42
2023-11-14T14:01:08.382Z,9.48
2023-11-14T14:03:36.611Z,9.48
2023-11-14T14:06:04.277Z,9.48
2023-11-14T14:08:30.884Z,9.45
2023-11-14T14:10:57.342Z,9.41
2023-11-14T14:13:23.815Z,9.35
2023-11-14T14:15:50.592Z,9.37
2023-11-14T14:18:17.188Z,9.32
2023-11-14T14:20:45.065Z,9.29
2023-11-14T14:23:11.751Z,9.26
2023-11-14T14:25:38.657Z,9.26
2023-11-14T14:28:05.222Z,9.23
2023-11-14T14:30:31.688Z,9.20
2023-11-14T14:32:58.174Z,9.20
2023-11-14T14:35:24.787Z,9.18
2023-11-14T14:37:52.626Z,9.17
2023-11-14T14:40:19.436Z,9.11
2023-11-14T14:42:45.990Z,9.05
2023-11-14T14:45:12.504Z,8.98
2023-11-14T14:47:40.133Z,8.92
2023-11-14T14:50:08.925Z,8.90
2023-11-14T14:52:36.083Z,8.82
2023-11-14T14:55:04.972Z,8.78
2023-11-14T14:57:31.574Z,8.69
2023-11-14T14:59:58.037Z,8.61
2023-11-14T15:02:25.340Z,8.54
2023-11-14T15:04:52.147Z,8.47
2023-11-14T15:07:18.662Z,8.42
2023-11-14T15:09:45.710Z,8.37
2023-11-14T15:12:13.555Z,8.36
2023-11-14T15:14:40.124Z,8.32
2023-11-14T15:17:07.287Z,8.30
2023-11-14T15:19:33.758Z,8.27
2023-11-14T15:22:00.328Z,8.25
2023-11-14T15:24:27.205Z,8.20
2023-11-14T15:26:56.277Z,8.16
2023-11-14T15:29:25.153Z,8.16
2023-11-14T15:31:51.660Z,8.11
2023-11-14T15:34:18.220Z,8.07
2023-11-14T15:36:44.640Z,8.05
2023-11-14T15:39:11.171Z,8.00
2023-11-14T15:41:37.759Z,7.98
2023-11-14T15:44:04.968Z,7.97
2023-11-14T15:46:33.155Z,7.92
2023-11-14T15:48:59.673Z,7.91
2023-11-14T15:51:26.314Z,7.89
2023-11-14T15:53:52.942Z,7.90
2023-11-14T15:56:19.868Z,7.91
2023-11-14T15:58:46.504Z,7.91
2023-11-14T16:01:13.050Z,7.90
2023-11-14T16:03:41.184Z,7.92
2023-11-14T16:06:07.998Z,8.00
2023-11-14T16:08:35.084Z,8.08
2023-11-14T16:11:01.686Z,8.12
2023-11-14T16:13:28.667Z,8.33
2023-11-14T16:15:55.510Z,8.41
2023-11-14T16:18:22.469Z,8.47
2023-11-14T16:20:50.392Z,8.51
2023-11-14T16:23:16.930Z,8.54
2023-11-14T16:25:43.841Z,8.54
2023-11-14T16:28:10.552Z,8.59
2023-11-14T16:30:37.079Z,8.59
2023-11-14T16:33:03.753Z,8.67
2023-11-14T16:35:30.538Z,8.70
2023-11-14T16:37:58.414Z,8.71
2023-11-14T16:40:24.983Z,8.71
2023-11-14T16:42:51.590Z,8.69
2023-11-14T16:45:18.200Z,8.74
2023-11-14T16:47:45.093Z,8.76
2023-11-14T16:50:11.994Z,8.76
2023-11-14T16:52:38.757Z,8.87
2023-11-14T16:55:08.958Z,8.87
2023-11-14T16:57:35.806Z,8.89
2023-11-14T17:00:02.394Z,8.86
2023-11-14T17:02:28.876Z,8.85
2023-11-14T17:04:55.528Z,8.94
2023-11-14T17:07:22.196Z,8.86
2023-11-14T17:09:51.416Z,8.80
2023-11-14T17:12:19.819Z,8.75
2023-11-14T17:14:46.403Z,8.73
2023-11-14T17:17:12.887Z,8.71
2023-11-14T17:19:39.350Z,8.65
2023-11-14T17:22:05.876Z,8.59
2023-11-14T17:24:32.374Z,8.57
2023-11-14T17:26:58.994Z,8.53
2023-11-14T17:29:26.966Z,8.47
2023-11-14T17:31:53.542Z,8.50
2023-11-14T17:34:20.359Z,8.49
2023-11-14T17:36:46.883Z,8.49
2023-11-14T17:39:13.412Z,8.40
2023-11-14T17:41:39.938Z,8.38
2023-11-14T17:44:07.275Z,8.35
2023-11-14T17:46:35.283Z,8.35
2023-11-14T17:49:02.041Z,8.32
2023-11-14T17:51:37.568Z,8.36
2023-11-14T17:54:05.912Z,8.28
2023-11-14T17:56:32.639Z,8.26
2023-11-14T17:58:59.517Z,8.20
2023-11-14T18:01:26.101Z,8.18
2023-11-14T18:03:54.506Z,8.11
2023-11-14T18:06:21.060Z,8.11
2023-11-14T18:08:47.693Z,8.05
2023-11-14T18:11:14.543Z,8.04
2023-11-14T18:13:41.061Z,8.01
2023-11-14T18:16:08.341Z,7.98
2023-11-14T18:18:34.859Z,7.92
2023-11-14T18:21:02.801Z,7.92
2023-11-14T18:23:29.283Z,7.89
2023-11-14T18:25:55.915Z,7.98
2023-11-14T18:28:22.629Z,7.98
2023-11-14T18:30:49.198Z,7.96
2023-11-14T18:33:15.688Z,7.95
2023-11-14T18:35:42.526Z,7.92
2023-11-14T18:38:10.452Z,7.90
2023-11-14T18:40:36.918Z,7.84
2023-11-14T18:43:03.502Z,7.80
2023-11-14T18:45:30.005Z,7.74
2023-11-14T18:47:56.581Z,7.70
2023-11-14T18:50:23.167Z,7.70
2023-11-14T18:52:49.623Z,7.66
2023-11-14T18:55:17.588Z,7.63
2023-11-14T18:57:44.075Z,7.60
2023-11-14T19:00:11.725Z,7.61
2023-11-14T19:02:38.442Z,7.60
2023-11-14T19:05:06.058Z,7.60
2023-11-14T19:07:32.570Z,7.60
2023-11-14T19:09:59.086Z,7.59
2023-11-14T19:12:26.896Z,7.58
2023-11-14T19:14:53.617Z,7.57
2023-11-14T19:17:20.233Z,7.56
2023-11-14T19:19:47.360Z,7.56
2023-11-14T19:22:38.832Z,7.53
2023-11-14T19:25:02.805Z,7.53
2023-11-14T19:27:32.377Z,7.51
2023-11-14T19:29:58.819Z,7.45
2023-11-14T19:32:25.886Z,7.44
2023-11-14T19:34:52.610Z,7.48
2023-11-14T19:37:19.359Z,7.47
2023-11-14T19:39:45.945Z,7.47
2023-11-14T19:42:12.593Z,7.47
2023-11-14T19:44:40.488Z,7.51
2023-11-14T19:47:06.965Z,7.48
2023-11-14T19:49:39.257Z,7.47
2023-11-14T19:52:11.391Z,7.48
2023-11-14T19:54:37.863Z,7.52
2023-11-14T19:57:04.656Z,7.51
2023-11-14T19:59:33.472Z,7.52
2023-11-14T20:02:01.485Z,7.57
2023-11-14T20:04:28.031Z,7.60
2023-11-14T20:06:54.615Z,7.57
2023-11-14T20:09:21.119Z,7.63
2023-11-14T20:11:47.708Z,7.67
2023-11-14T20:14:14.294Z,7.73
2023-11-14T20:16:41.150Z,7.70
2023-11-14T20:19:09.345Z,7.74
2023-11-14T20:21:35.799Z,7.77
2023-11-14T20:24:02.299Z,7.77
2023-11-14T20:26:29.021Z,7.75
2023-11-14T20:28:55.632Z,7.73
2023-11-14T20:31:22.211Z,7.74
2023-11-14T20:33:48.696Z,7.77
2023-11-14T20:36:16.711Z,7.77
2023-11-14T20:38:43.314Z,7.74
2023-11-14T20:41:09.957Z,7.71
2023-11-14T20:43:36.490Z,7.74
2023-11-14T20:46:03.123Z,7.74
2023-11-14T20:48:30.007Z,7.77
2023-11-14T20:50:56.638Z,7.79
2023-11-14T20:53:24.677Z,7.82
2023-11-14T20:55:51.492Z,7.81
2023-11-14T20:58:18.209Z,7.83
2023-11-14T21:00:44.743Z,7.88
2023-11-14T21:03:11.283Z,7.93
2023-11-14T21:05:37.799Z,7.91
2023-11-14T21:08:04.591Z,7.87
2023-11-14T21:10:32.408Z,7.85
2023-11-14T21:12:58.888Z,7.85
2023-11-14T21:15:25.362Z,7.83
2023-11-14T21:17:53.425Z,7.80
2023-11-14T21:20:21.204Z,7.78
2023-11-14T21:22:48.177Z,7.78
2023-11-14T21:25:15.235Z,7.84
2023-11-14T21:27:43.338Z,7.86
2023-11-14T21:30:10.030Z,7.82
2023-11-14T21:32:36.548Z,7.82
2023-11-14T21:35:03.272Z,7.80
2023-11-14T21:37:29.780Z,7.82
2023-11-14T21:39:56.258Z,7.82
2023-11-14T21:42:22.768Z,7.78
2023-11-14T21:44:50.600Z,7.76
2023-11-14T21:47:17.055Z,7.76
2023-11-14T21:49:43.515Z,7.72
2023-11-14T21:52:09.954Z,7.70
2023-11-14T21:54:36.496Z,7.71
2023-11-14T21:57:03.330Z,7.69
2023-11-14T21:59:29.866Z,7.67
2023-11-14T22:01:57.908Z,7.67
2023-11-14T22:04:24.623Z,7.68
2023-11-14T22:06:51.151Z,7.67
2023-11-14T22:09:17.777Z,7.63
2023-11-14T22:11:44.357Z,7.62
2023-11-14T22:14:11.519Z,7.64
2023-11-14T22:16:38.045Z,7.63
2023-11-14T22:19:05.904Z,7.61
2023-11-14T22:21:32.492Z,7.61
2023-11-14T22:23:59.011Z,7.60
2023-11-14T22:26:25.471Z,7.62
2023-11-14T22:28:54.885Z,7.57
2023-11-14T22:31:22.262Z,7.56
2023-11-14T22:33:48.698Z,7.55
2023-11-14T22:36:17.389Z,7.55
2023-11-14T22:38:44.043Z,7.49
2023-11-14T22:41:13.446Z,7.48
2023-11-14T22:43:40.031Z,7.44
2023-11-14T22:46:06.956Z,7.40
2023-11-14T22:48:33.825Z,7.40
2023-11-14T22:51:00.401Z,7.39
2023-11-14T22:53:28.254Z,7.34
2023-11-14T22:55:54.698Z,7.32
2023-11-14T22:58:21.166Z,7.28
2023-11-14T23:00:47.695Z,7.24
2023-11-14T23:03:16.247Z,7.24
2023-11-14T23:05:43.680Z,7.21
2023-11-14T23:08:10.143Z,7.24
2023-11-14T23:10:38.674Z,7.21
2023-11-14T23:13:06.357Z,7.20
2023-11-14T23:15:32.904Z,7.11
2023-11-14T23:17:59.519Z,7.14
2023-11-14T23:20:26.150Z,7.11
2023-11-14T23:22:52.716Z,7.07
2023-11-14T23:25:19.234Z,7.05
2023-11-14T23:27:47.039Z,7.01
2023-11-14T23:30:14.362Z,7.02
2023-11-14T23:32:41.224Z,6.98
2023-11-14T23:35:08.684Z,6.96
2023-11-14T23:37:35.965Z,6.96
2023-11-14T23:40:02.661Z,6.92
2023-11-14T23:42:29.395Z,6.87
2023-11-14T23:44:57.723Z,6.88
2023-11-14T23:47:24.417Z,6.90
2023-11-14T23:49:51.624Z,6.90
2023-11-14T23:52:18.254Z,6.87
2023-11-14T23:54:44.900Z,6.88
2023-11-14T23:57:11.508Z,6.89
2023-11-14T23:59:38.296Z,6.92
